Current Conditions
Partly Cloudy
Conditions



Pressure
1026.92 (hPa) - 30.32 (inHG)
Visibility

10.0 (km) - 6.2 (miles)
   Temperature
11  °C
52°F
9  °C
Dewpoint
88  %
 Humidity
   Wind Speed
3  km/h
2  kts
2  mph
0.9  m/s
   Wind Direction
Calm
Due North
   Airport Data
LEAS
Location Asturias Airport 50 km (31.08 mi)
Metar :LEAS 181230Z VRB02KT 9999 FEW007 BKN013 11/09 Q1027 NOSIG
Mon 18th January 14:30 pm
   Raw Metar Info
Raw METAR is the most common format in the world for the transmission of observational weather data. It is highly standardized through the International Civil Aviation Organization (ICAO), which allows it to be understood throughout most of the world.
   API Info
Data Provided by
https://www.checkwx.com/weather/LEAS
   © Info
CSS/SVG/PHP scripts were developed by weather34.com for use in the weather34 template © 2015-2021

Guide Info provided by Metar-Wikipedia